sensor_id;sensor_type;location;lat;lon;timestamp;temperature;humidity
24146;DHT22;12308;50.948;4.706;2024-02-26T00:02:23;7.80;99.90
24146;DHT22;12308;50.948;4.706;2024-02-26T00:04:49;7.80;99.90
24146;DHT22;12308;50.948;4.706;2024-02-26T00:07:16;7.80;99.90
24146;DHT22;12308;50.948;4.706;2024-02-26T00:09:42;7.70;99.90
24146;DHT22;12308;50.948;4.706;2024-02-26T00:12:07;7.70;99.90
24146;DHT22;12308;50.948;4.706;2024-02-26T00:14:33;7.90;99.90
24146;DHT22;12308;50.948;4.706;2024-02-26T00:16:59;7.80;99.90
24146;DHT22;12308;50.948;4.706;2024-02-26T00:19:25;7.90;99.90
24146;DHT22;12308;50.948;4.706;2024-02-26T00:21:51;7.80;99.90
24146;DHT22;12308;50.948;4.706;2024-02-26T00:24:16;7.90;99.90
24146;DHT22;12308;50.948;4.706;2024-02-26T00:26:42;7.90;99.90
24146;DHT22;12308;50.948;4.706;2024-02-26T00:29:08;7.90;99.90
24146;DHT22;12308;50.948;4.706;2024-02-26T00:31:33;7.90;99.90
24146;DHT22;12308;50.948;4.706;2024-02-26T00:33:59;7.80;99.90
24146;DHT22;12308;50.948;4.706;2024-02-26T00:36:26;7.70;99.90
24146;DHT22;12308;50.948;4.706;2024-02-26T00:38:51;7.60;99.90
24146;DHT22;12308;50.948;4.706;2024-02-26T00:41:18;7.60;99.90
24146;DHT22;12308;50.948;4.706;2024-02-26T00:43:44;7.50;99.90
24146;DHT22;12308;50.948;4.706;2024-02-26T00:46:09;7.50;99.90
24146;DHT22;12308;50.948;4.706;2024-02-26T00:48:35;7.50;99.90
24146;DHT22;12308;50.948;4.706;2024-02-26T00:51:01;7.50;99.90
24146;DHT22;12308;50.948;4.706;2024-02-26T00:53:26;7.40;99.90
24146;DHT22;12308;50.948;4.706;2024-02-26T00:55:54;7.50;99.90
24146;DHT22;12308;50.948;4.706;2024-02-26T00:58:19;7.40;99.90
24146;DHT22;12308;50.948;4.706;2024-02-26T01:00:45;7.50;99.90
24146;DHT22;12308;50.948;4.706;2024-02-26T01:03:11;7.40;99.90
24146;DHT22;12308;50.948;4.706;2024-02-26T01:05:36;7.40;99.90
24146;DHT22;12308;50.948;4.706;2024-02-26T01:08:04;7.40;99.90
24146;DHT22;12308;50.948;4.706;2024-02-26T01:10:29;7.40;99.90
24146;DHT22;12308;50.948;4.706;2024-02-26T01:12:55;7.30;99.90
24146;DHT22;12308;50.948;4.706;2024-02-26T01:15:21;7.30;99.90
24146;DHT22;12308;50.948;4.706;2024-02-26T01:17:49;7.40;99.90
24146;DHT22;12308;50.948;4.706;2024-02-26T01:20:16;7.40;99.90
24146;DHT22;12308;50.948;4.706;2024-02-26T01:22:43;7.30;99.90
24146;DHT22;12308;50.948;4.706;2024-02-26T01:25:08;7.30;99.90
24146;DHT22;12308;50.948;4.706;2024-02-26T01:27:36;7.30;99.90
24146;DHT22;12308;50.948;4.706;2024-02-26T01:30:03;7.40;99.90
24146;DHT22;12308;50.948;4.706;2024-02-26T01:32:29;7.40;99.90
24146;DHT22;12308;50.948;4.706;2024-02-26T01:34:56;7.30;99.90
24146;DHT22;12308;50.948;4.706;2024-02-26T01:37:21;7.30;99.90
24146;DHT22;12308;50.948;4.706;2024-02-26T01:39:47;7.30;99.90
24146;DHT22;12308;50.948;4.706;2024-02-26T01:42:13;7.20;99.90
24146;DHT22;12308;50.948;4.706;2024-02-26T01:44:38;7.30;99.90
24146;DHT22;12308;50.948;4.706;2024-02-26T01:47:05;7.30;99.90
24146;DHT22;12308;50.948;4.706;2024-02-26T01:49:34;7.30;99.90
24146;DHT22;12308;50.948;4.706;2024-02-26T01:52:01;7.20;99.90
24146;DHT22;12308;50.948;4.706;2024-02-26T01:54:29;7.20;99.90
24146;DHT22;12308;50.948;4.706;2024-02-26T01:56:55;7.10;99.90
24146;DHT22;12308;50.948;4.706;2024-02-26T01:59:22;7.20;99.90
24146;DHT22;12308;50.948;4.706;2024-02-26T02:01:49;7.20;99.90
24146;DHT22;12308;50.948;4.706;2024-02-26T02:04:18;7.20;99.90
24146;DHT22;12308;50.948;4.706;2024-02-26T02:06:45;7.20;99.90
24146;DHT22;12308;50.948;4.706;2024-02-26T02:09:11;7.20;99.90
24146;DHT22;12308;50.948;4.706;2024-02-26T02:11:37;7.20;99.90
24146;DHT22;12308;50.948;4.706;2024-02-26T02:14:03;7.20;99.90
24146;DHT22;12308;50.948;4.706;2024-02-26T02:16:29;7.20;99.90
24146;DHT22;12308;50.948;4.706;2024-02-26T02:18:54;7.20;99.90
24146;DHT22;12308;50.948;4.706;2024-02-26T02:21:20;7.10;99.90
24146;DHT22;12308;50.948;4.706;2024-02-26T02:23:46;7.10;99.90
24146;DHT22;12308;50.948;4.706;2024-02-26T02:26:13;7.10;99.90
24146;DHT22;12308;50.948;4.706;2024-02-26T02:28:39;7.10;99.90
24146;DHT22;12308;50.948;4.706;2024-02-26T02:31:05;7.10;99.90
24146;DHT22;12308;50.948;4.706;2024-02-26T02:33:32;7.20;99.90
24146;DHT22;12308;50.948;4.706;2024-02-26T02:35:58;7.20;99.90
24146;DHT22;12308;50.948;4.706;2024-02-26T02:38:24;7.10;99.90
24146;DHT22;12308;50.948;4.706;2024-02-26T02:40:51;7.10;99.90
24146;DHT22;12308;50.948;4.706;2024-02-26T02:43:17;7.00;99.90
24146;DHT22;12308;50.948;4.706;2024-02-26T02:45:43;7.00;99.90
24146;DHT22;12308;50.948;4.706;2024-02-26T02:48:09;7.00;99.90
24146;DHT22;12308;50.948;4.706;2024-02-26T02:50:34;7.00;99.90
24146;DHT22;12308;50.948;4.706;2024-02-26T02:53:00;7.00;99.90
24146;DHT22;12308;50.948;4.706;2024-02-26T02:55:27;7.00;99.90
24146;DHT22;12308;50.948;4.706;2024-02-26T02:57:52;7.00;99.90
24146;DHT22;12308;50.948;4.706;2024-02-26T03:00:18;7.00;99.90
24146;DHT22;12308;50.948;4.706;2024-02-26T03:02:44;7.00;99.90
24146;DHT22;12308;50.948;4.706;2024-02-26T03:05:10;7.00;99.90
24146;DHT22;12308;50.948;4.706;2024-02-26T03:07:36;7.00;99.90
24146;DHT22;12308;50.948;4.706;2024-02-26T03:10:02;6.90;99.90
24146;DHT22;12308;50.948;4.706;2024-02-26T03:12:27;6.90;99.90
24146;DHT22;12308;50.948;4.706;2024-02-26T03:14:53;6.90;99.90
24146;DHT22;12308;50.948;4.706;2024-02-26T03:17:20;6.90;99.90
24146;DHT22;12308;50.948;4.706;2024-02-26T03:19:46;6.90;99.90
24146;DHT22;12308;50.948;4.706;2024-02-26T03:22:13;6.90;99.90
24146;DHT22;12308;50.948;4.706;2024-02-26T03:24:39;6.90;99.90
24146;DHT22;12308;50.948;4.706;2024-02-26T03:27:04;6.90;99.90
24146;DHT22;12308;50.948;4.706;2024-02-26T03:29:35;7.00;99.90
24146;DHT22;12308;50.948;4.706;2024-02-26T03:32:01;6.90;99.90
24146;DHT22;12308;50.948;4.706;2024-02-26T03:34:26;6.90;99.90
24146;DHT22;12308;50.948;4.706;2024-02-26T03:36:52;6.90;99.90
24146;DHT22;12308;50.948;4.706;2024-02-26T03:39:18;6.90;99.90
24146;DHT22;12308;50.948;4.706;2024-02-26T03:41:44;6.90;99.90
24146;DHT22;12308;50.948;4.706;2024-02-26T03:44:09;6.90;99.90
24146;DHT22;12308;50.948;4.706;2024-02-26T03:46:35;6.90;99.90
24146;DHT22;12308;50.948;4.706;2024-02-26T03:49:01;6.80;99.90
24146;DHT22;12308;50.948;4.706;2024-02-26T03:51:26;6.90;99.90
24146;DHT22;12308;50.948;4.706;2024-02-26T03:53:57;7.00;99.90
24146;DHT22;12308;50.948;4.706;2024-02-26T03:56:23;6.90;99.90
24146;DHT22;12308;50.948;4.706;2024-02-26T03:58:49;6.90;99.90
24146;DHT22;12308;50.948;4.706;2024-02-26T04:01:15;6.90;99.90
24146;DHT22;12308;50.948;4.706;2024-02-26T04:03:41;6.90;99.90
24146;DHT22;12308;50.948;4.706;2024-02-26T04:06:10;6.80;99.90
24146;DHT22;12308;50.948;4.706;2024-02-26T04:08:37;6.90;99.90
24146;DHT22;12308;50.948;4.706;2024-02-26T04:11:03;6.90;99.90
24146;DHT22;12308;50.948;4.706;2024-02-26T04:13:36;6.90;99.90
24146;DHT22;12308;50.948;4.706;2024-02-26T04:16:05;6.80;99.90
24146;DHT22;12308;50.948;4.706;2024-02-26T04:18:31;6.90;99.90
24146;DHT22;12308;50.948;4.706;2024-02-26T04:20:57;6.90;99.90
24146;DHT22;12308;50.948;4.706;2024-02-26T04:23:24;6.90;99.90
24146;DHT22;12308;50.948;4.706;2024-02-26T04:25:49;7.00;99.90
24146;DHT22;12308;50.948;4.706;2024-02-26T04:28:15;6.90;99.90
24146;DHT22;12308;50.948;4.706;2024-02-26T04:30:41;6.80;99.90
24146;DHT22;12308;50.948;4.706;2024-02-26T04:33:06;6.80;99.90
24146;DHT22;12308;50.948;4.706;2024-02-26T04:35:32;6.80;99.90
24146;DHT22;12308;50.948;4.706;2024-02-26T04:37:58;6.80;99.90
24146;DHT22;12308;50.948;4.706;2024-02-26T04:40:23;6.80;99.90
24146;DHT22;12308;50.948;4.706;2024-02-26T04:42:49;6.80;99.90
24146;DHT22;12308;50.948;4.706;2024-02-26T04:45:15;6.80;99.90
24146;DHT22;12308;50.948;4.706;2024-02-26T04:47:41;6.80;99.90
24146;DHT22;12308;50.948;4.706;2024-02-26T04:50:07;6.80;99.90
24146;DHT22;12308;50.948;4.706;2024-02-26T04:52:33;6.90;99.90
24146;DHT22;12308;50.948;4.706;2024-02-26T04:54:58;6.80;99.90
24146;DHT22;12308;50.948;4.706;2024-02-26T04:57:25;6.80;99.90
24146;DHT22;12308;50.948;4.706;2024-02-26T04:59:51;6.80;99.90
24146;DHT22;12308;50.948;4.706;2024-02-26T05:02:17;6.80;99.90
24146;DHT22;12308;50.948;4.706;2024-02-26T05:04:43;6.80;99.90
24146;DHT22;12308;50.948;4.706;2024-02-26T05:07:09;6.90;99.90
24146;DHT22;12308;50.948;4.706;2024-02-26T05:09:34;6.80;99.90
24146;DHT22;12308;50.948;4.706;2024-02-26T05:12:00;6.80;99.90
24146;DHT22;12308;50.948;4.706;2024-02-26T05:14:26;6.80;99.90
24146;DHT22;12308;50.948;4.706;2024-02-26T05:16:52;6.70;99.90
24146;DHT22;12308;50.948;4.706;2024-02-26T05:19:17;6.80;99.90
24146;DHT22;12308;50.948;4.706;2024-02-26T05:21:43;6.80;99.90
24146;DHT22;12308;50.948;4.706;2024-02-26T05:24:09;6.80;99.90
24146;DHT22;12308;50.948;4.706;2024-02-26T05:26:35;6.80;99.90
24146;DHT22;12308;50.948;4.706;2024-02-26T05:29:01;6.80;99.90
24146;DHT22;12308;50.948;4.706;2024-02-26T05:31:27;6.80;99.90
24146;DHT22;12308;50.948;4.706;2024-02-26T05:33:54;6.80;99.90
24146;DHT22;12308;50.948;4.706;2024-02-26T05:36:23;6.80;99.90
24146;DHT22;12308;50.948;4.706;2024-02-26T05:38:49;6.80;99.90
24146;DHT22;12308;50.948;4.706;2024-02-26T05:41:16;6.80;99.90
24146;DHT22;12308;50.948;4.706;2024-02-26T05:43:42;6.80;99.90
24146;DHT22;12308;50.948;4.706;2024-02-26T05:46:08;6.90;99.90
24146;DHT22;12308;50.948;4.706;2024-02-26T05:48:34;6.80;99.90
24146;DHT22;12308;50.948;4.706;2024-02-26T05:50:59;6.80;99.90
24146;DHT22;12308;50.948;4.706;2024-02-26T05:53:25;6.80;99.90
24146;DHT22;12308;50.948;4.706;2024-02-26T05:55:50;6.80;99.90
24146;DHT22;12308;50.948;4.706;2024-02-26T05:58:16;6.80;99.90
24146;DHT22;12308;50.948;4.706;2024-02-26T06:00:42;6.80;99.90
24146;DHT22;12308;50.948;4.706;2024-02-26T06:03:07;6.70;99.90
24146;DHT22;12308;50.948;4.706;2024-02-26T06:05:33;6.80;99.90
24146;DHT22;12308;50.948;4.706;2024-02-26T06:07:59;6.70;99.90
24146;DHT22;12308;50.948;4.706;2024-02-26T06:10:24;6.80;99.90
24146;DHT22;12308;50.948;4.706;2024-02-26T06:12:50;6.80;99.90
24146;DHT22;12308;50.948;4.706;2024-02-26T06:15:16;6.80;99.90
24146;DHT22;12308;50.948;4.706;2024-02-26T06:17:41;6.80;99.90
24146;DHT22;12308;50.948;4.706;2024-02-26T06:20:07;6.80;99.90
24146;DHT22;12308;50.948;4.706;2024-02-26T06:22:37;6.80;99.90
24146;DHT22;12308;50.948;4.706;2024-02-26T06:25:02;6.80;99.90
24146;DHT22;12308;50.948;4.706;2024-02-26T06:27:28;6.70;99.90
24146;DHT22;12308;50.948;4.706;2024-02-26T06:29:54;6.70;99.90
24146;DHT22;12308;50.948;4.706;2024-02-26T06:32:20;6.70;99.90
24146;DHT22;12308;50.948;4.706;2024-02-26T06:34:45;6.70;99.90
24146;DHT22;12308;50.948;4.706;2024-02-26T06:37:11;6.70;99.90
24146;DHT22;12308;50.948;4.706;2024-02-26T06:39:37;6.60;99.90
24146;DHT22;12308;50.948;4.706;2024-02-26T06:42:04;6.60;99.90
24146;DHT22;12308;50.948;4.706;2024-02-26T06:44:32;6.50;99.90
24146;DHT22;12308;50.948;4.706;2024-02-26T06:47:01;6.60;99.90
24146;DHT22;12308;50.948;4.706;2024-02-26T06:49:27;6.60;99.90
24146;DHT22;12308;50.948;4.706;2024-02-26T06:51:53;6.60;99.90
24146;DHT22;12308;50.948;4.706;2024-02-26T06:54:19;6.60;99.90
24146;DHT22;12308;50.948;4.706;2024-02-26T06:56:46;6.60;99.90
24146;DHT22;12308;50.948;4.706;2024-02-26T06:59:11;6.60;99.90
24146;DHT22;12308;50.948;4.706;2024-02-26T07:01:40;6.50;99.90
24146;DHT22;12308;50.948;4.706;2024-02-26T07:04:06;6.60;99.90
24146;DHT22;12308;50.948;4.706;2024-02-26T07:06:31;6.60;99.90
24146;DHT22;12308;50.948;4.706;2024-02-26T07:08:57;6.60;99.90
24146;DHT22;12308;50.948;4.706;2024-02-26T07:11:23;6.60;99.90
24146;DHT22;12308;50.948;4.706;2024-02-26T07:13:48;6.50;99.90
24146;DHT22;12308;50.948;4.706;2024-02-26T07:16:15;6.60;99.90
24146;DHT22;12308;50.948;4.706;2024-02-26T07:18:40;6.50;99.90
24146;DHT22;12308;50.948;4.706;2024-02-26T07:21:06;6.60;99.90
24146;DHT22;12308;50.948;4.706;2024-02-26T07:23:32;6.50;99.90
24146;DHT22;12308;50.948;4.706;2024-02-26T07:25:58;6.50;99.90
24146;DHT22;12308;50.948;4.706;2024-02-26T07:28:24;6.60;99.90
24146;DHT22;12308;50.948;4.706;2024-02-26T07:30:50;6.60;99.90
24146;DHT22;12308;50.948;4.706;2024-02-26T07:33:16;6.60;99.90
24146;DHT22;12308;50.948;4.706;2024-02-26T07:35:41;6.60;99.90
24146;DHT22;12308;50.948;4.706;2024-02-26T07:38:07;6.60;99.90
24146;DHT22;12308;50.948;4.706;2024-02-26T07:40:33;6.60;99.90
24146;DHT22;12308;50.948;4.706;2024-02-26T07:42:58;6.60;99.90
24146;DHT22;12308;50.948;4.706;2024-02-26T07:45:24;6.60;99.90
24146;DHT22;12308;50.948;4.706;2024-02-26T07:47:49;6.60;99.90
24146;DHT22;12308;50.948;4.706;2024-02-26T07:50:17;6.60;99.90
24146;DHT22;12308;50.948;4.706;2024-02-26T07:52:43;6.60;99.90
24146;DHT22;12308;50.948;4.706;2024-02-26T07:55:10;6.60;99.90
24146;DHT22;12308;50.948;4.706;2024-02-26T07:57:36;6.60;99.90
24146;DHT22;12308;50.948;4.706;2024-02-26T08:00:03;6.60;99.90
24146;DHT22;12308;50.948;4.706;2024-02-26T08:02:28;6.60;99.90
24146;DHT22;12308;50.948;4.706;2024-02-26T08:04:54;6.60;99.90
24146;DHT22;12308;50.948;4.706;2024-02-26T08:07:20;6.60;99.90
24146;DHT22;12308;50.948;4.706;2024-02-26T08:09:47;6.60;99.90
24146;DHT22;12308;50.948;4.706;2024-02-26T08:12:12;6.60;99.90
24146;DHT22;12308;50.948;4.706;2024-02-26T08:14:38;6.60;99.90
24146;DHT22;12308;50.948;4.706;2024-02-26T08:17:04;6.60;99.90
24146;DHT22;12308;50.948;4.706;2024-02-26T08:19:29;6.60;99.90
24146;DHT22;12308;50.948;4.706;2024-02-26T08:21:55;6.60;99.90
24146;DHT22;12308;50.948;4.706;2024-02-26T08:24:21;6.60;99.90
24146;DHT22;12308;50.948;4.706;2024-02-26T08:26:46;6.60;99.90
24146;DHT22;12308;50.948;4.706;2024-02-26T08:29:12;6.60;99.90
24146;DHT22;12308;50.948;4.706;2024-02-26T08:31:38;6.60;99.90
24146;DHT22;12308;50.948;4.706;2024-02-26T08:34:04;6.60;99.90
24146;DHT22;12308;50.948;4.706;2024-02-26T08:36:34;6.50;99.90
24146;DHT22;12308;50.948;4.706;2024-02-26T08:39:00;6.50;99.90
24146;DHT22;12308;50.948;4.706;2024-02-26T08:41:25;6.50;99.90
24146;DHT22;12308;50.948;4.706;2024-02-26T08:43:51;6.60;99.90
24146;DHT22;12308;50.948;4.706;2024-02-26T08:46:17;6.60;99.90
24146;DHT22;12308;50.948;4.706;2024-02-26T08:48:43;6.60;99.90
24146;DHT22;12308;50.948;4.706;2024-02-26T08:51:09;6.60;99.90
24146;DHT22;12308;50.948;4.706;2024-02-26T08:53:35;6.60;99.90
24146;DHT22;12308;50.948;4.706;2024-02-26T08:56:01;6.50;99.90
24146;DHT22;12308;50.948;4.706;2024-02-26T08:58:28;6.60;99.90
24146;DHT22;12308;50.948;4.706;2024-02-26T09:00:54;6.60;99.90
24146;DHT22;12308;50.948;4.706;2024-02-26T09:03:20;6.60;99.90
24146;DHT22;12308;50.948;4.706;2024-02-26T09:05:46;6.60;99.90
24146;DHT22;12308;50.948;4.706;2024-02-26T09:08:11;6.60;99.90
24146;DHT22;12308;50.948;4.706;2024-02-26T09:10:38;6.60;99.90
24146;DHT22;12308;50.948;4.706;2024-02-26T09:13:04;6.50;99.90
24146;DHT22;12308;50.948;4.706;2024-02-26T09:15:29;6.50;99.90
24146;DHT22;12308;50.948;4.706;2024-02-26T09:17:55;6.60;99.90
24146;DHT22;12308;50.948;4.706;2024-02-26T09:20:21;6.60;99.90
24146;DHT22;12308;50.948;4.706;2024-02-26T09:22:47;6.60;99.90
24146;DHT22;12308;50.948;4.706;2024-02-26T09:25:14;6.60;99.90
24146;DHT22;12308;50.948;4.706;2024-02-26T09:27:46;6.70;99.90
24146;DHT22;12308;50.948;4.706;2024-02-26T09:30:12;6.70;99.90
24146;DHT22;12308;50.948;4.706;2024-02-26T09:32:39;6.70;99.90
24146;DHT22;12308;50.948;4.706;2024-02-26T09:35:08;6.70;99.90
24146;DHT22;12308;50.948;4.706;2024-02-26T09:37:34;6.70;99.90
24146;DHT22;12308;50.948;4.706;2024-02-26T09:40:02;6.70;99.90
24146;DHT22;12308;50.948;4.706;2024-02-26T09:42:30;6.70;99.90
24146;DHT22;12308;50.948;4.706;2024-02-26T09:45:00;6.70;99.90
24146;DHT22;12308;50.948;4.706;2024-02-26T09:47:28;6.70;99.90
24146;DHT22;12308;50.948;4.706;2024-02-26T09:49:56;6.70;99.90
24146;DHT22;12308;50.948;4.706;2024-02-26T09:52:24;6.70;99.90
24146;DHT22;12308;50.948;4.706;2024-02-26T09:54:51;6.60;99.90
24146;DHT22;12308;50.948;4.706;2024-02-26T09:57:16;6.60;99.90
24146;DHT22;12308;50.948;4.706;2024-02-26T09:59:43;6.60;99.90
24146;DHT22;12308;50.948;4.706;2024-02-26T10:02:14;6.60;99.90
24146;DHT22;12308;50.948;4.706;2024-02-26T10:04:41;6.60;99.90
24146;DHT22;12308;50.948;4.706;2024-02-26T10:07:12;6.60;99.90
24146;DHT22;12308;50.948;4.706;2024-02-26T10:09:38;6.60;99.90
24146;DHT22;12308;50.948;4.706;2024-02-26T10:12:05;6.60;99.90
24146;DHT22;12308;50.948;4.706;2024-02-26T10:14:32;6.60;99.90
24146;DHT22;12308;50.948;4.706;2024-02-26T10:16:59;6.50;99.90
24146;DHT22;12308;50.948;4.706;2024-02-26T10:19:28;6.50;99.90
24146;DHT22;12308;50.948;4.706;2024-02-26T10:21:56;6.50;99.90
24146;DHT22;12308;50.948;4.706;2024-02-26T10:24:23;6.50;99.90
24146;DHT22;12308;50.948;4.706;2024-02-26T10:26:51;6.50;99.90
24146;DHT22;12308;50.948;4.706;2024-02-26T10:29:18;6.60;99.90
24146;DHT22;12308;50.948;4.706;2024-02-26T10:31:44;6.60;99.90
24146;DHT22;12308;50.948;4.706;2024-02-26T10:34:10;6.50;99.90
24146;DHT22;12308;50.948;4.706;2024-02-26T10:36:37;6.50;99.90
24146;DHT22;12308;50.948;4.706;2024-02-26T10:39:04;6.50;99.90
24146;DHT22;12308;50.948;4.706;2024-02-26T10:41:30;6.50;99.90
24146;DHT22;12308;50.948;4.706;2024-02-26T10:43:58;6.50;99.90
24146;DHT22;12308;50.948;4.706;2024-02-26T10:46:25;6.50;99.90
24146;DHT22;12308;50.948;4.706;2024-02-26T10:48:52;6.50;99.90
24146;DHT22;12308;50.948;4.706;2024-02-26T10:51:28;6.50;99.90
24146;DHT22;12308;50.948;4.706;2024-02-26T10:53:57;6.50;99.90
24146;DHT22;12308;50.948;4.706;2024-02-26T10:56:34;6.50;99.90
24146;DHT22;12308;50.948;4.706;2024-02-26T10:59:00;6.40;99.90
24146;DHT22;12308;50.948;4.706;2024-02-26T11:01:27;6.40;99.90
24146;DHT22;12308;50.948;4.706;2024-02-26T11:03:57;6.40;99.90
24146;DHT22;12308;50.948;4.706;2024-02-26T11:06:26;6.40;99.90
24146;DHT22;12308;50.948;4.706;2024-02-26T11:08:53;6.40;99.90
24146;DHT22;12308;50.948;4.706;2024-02-26T11:11:20;6.40;99.90
24146;DHT22;12308;50.948;4.706;2024-02-26T11:13:47;6.40;99.90
24146;DHT22;12308;50.948;4.706;2024-02-26T11:16:22;6.50;99.90
24146;DHT22;12308;50.948;4.706;2024-02-26T11:18:48;6.40;99.90
24146;DHT22;12308;50.948;4.706;2024-02-26T11:21:18;6.40;99.90
24146;DHT22;12308;50.948;4.706;2024-02-26T11:23:47;6.40;99.90
24146;DHT22;12308;50.948;4.706;2024-02-26T11:26:15;6.30;99.90
24146;DHT22;12308;50.948;4.706;2024-02-26T11:28:42;6.30;99.90
24146;DHT22;12308;50.948;4.706;2024-02-26T11:31:10;6.30;99.90
24146;DHT22;12308;50.948;4.706;2024-02-26T11:33:36;6.30;99.90
24146;DHT22;12308;50.948;4.706;2024-02-26T11:36:08;6.30;99.90
24146;DHT22;12308;50.948;4.706;2024-02-26T11:38:36;6.30;99.90
24146;DHT22;12308;50.948;4.706;2024-02-26T11:41:03;6.30;99.90
24146;DHT22;12308;50.948;4.706;2024-02-26T11:46:30;6.30;99.90
24146;DHT22;12308;50.948;4.706;2024-02-26T11:49:00;6.30;99.90
24146;DHT22;12308;50.948;4.706;2024-02-26T11:51:28;6.30;99.90
24146;DHT22;12308;50.948;4.706;2024-02-26T11:53:54;6.30;99.90
24146;DHT22;12308;50.948;4.706;2024-02-26T11:56:22;6.30;99.90
24146;DHT22;12308;50.948;4.706;2024-02-26T11:58:53;6.30;99.90
24146;DHT22;12308;50.948;4.706;2024-02-26T12:04:26;6.30;99.90
24146;DHT22;12308;50.948;4.706;2024-02-26T12:06:57;6.20;99.90
24146;DHT22;12308;50.948;4.706;2024-02-26T12:12:05;6.20;99.90
24146;DHT22;12308;50.948;4.706;2024-02-26T12:14:51;6.30;99.90
24146;DHT22;12308;50.948;4.706;2024-02-26T12:17:22;6.40;99.90
24146;DHT22;12308;50.948;4.706;2024-02-26T12:19:49;6.40;99.90
24146;DHT22;12308;50.948;4.706;2024-02-26T12:22:15;6.40;99.90
24146;DHT22;12308;50.948;4.706;2024-02-26T12:24:41;6.40;99.90
24146;DHT22;12308;50.948;4.706;2024-02-26T12:27:07;6.30;99.90
24146;DHT22;12308;50.948;4.706;2024-02-26T12:29:32;6.30;99.90
24146;DHT22;12308;50.948;4.706;2024-02-26T12:31:58;6.30;99.90
24146;DHT22;12308;50.948;4.706;2024-02-26T12:34:24;6.30;99.90
24146;DHT22;12308;50.948;4.706;2024-02-26T12:36:50;6.30;99.90
24146;DHT22;12308;50.948;4.706;2024-02-26T12:39:16;6.30;99.90
24146;DHT22;12308;50.948;4.706;2024-02-26T12:41:42;6.30;99.90
24146;DHT22;12308;50.948;4.706;2024-02-26T12:44:17;6.40;99.90
24146;DHT22;12308;50.948;4.706;2024-02-26T12:46:43;6.40;99.90
24146;DHT22;12308;50.948;4.706;2024-02-26T12:49:17;6.40;99.90
24146;DHT22;12308;50.948;4.706;2024-02-26T12:51:44;6.40;99.90
24146;DHT22;12308;50.948;4.706;2024-02-26T12:54:11;6.30;99.90
24146;DHT22;12308;50.948;4.706;2024-02-26T12:56:37;6.40;99.90
24146;DHT22;12308;50.948;4.706;2024-02-26T12:59:03;6.40;99.90
24146;DHT22;12308;50.948;4.706;2024-02-26T13:01:30;6.40;99.90
24146;DHT22;12308;50.948;4.706;2024-02-26T13:03:56;6.50;99.90
24146;DHT22;12308;50.948;4.706;2024-02-26T13:06:22;6.50;99.90
24146;DHT22;12308;50.948;4.706;2024-02-26T13:08:48;6.50;99.90
24146;DHT22;12308;50.948;4.706;2024-02-26T13:11:14;6.50;99.90
24146;DHT22;12308;50.948;4.706;2024-02-26T13:13:40;6.50;99.90
24146;DHT22;12308;50.948;4.706;2024-02-26T13:16:09;6.40;99.90
24146;DHT22;12308;50.948;4.706;2024-02-26T13:18:35;6.30;99.90
24146;DHT22;12308;50.948;4.706;2024-02-26T13:21:15;6.30;99.90
24146;DHT22;12308;50.948;4.706;2024-02-26T13:23:42;6.40;99.90
24146;DHT22;12308;50.948;4.706;2024-02-26T13:26:11;6.40;99.90
24146;DHT22;12308;50.948;4.706;2024-02-26T13:28:37;6.40;99.90
24146;DHT22;12308;50.948;4.706;2024-02-26T13:31:03;6.40;99.90
24146;DHT22;12308;50.948;4.706;2024-02-26T13:33:31;6.40;99.90
24146;DHT22;12308;50.948;4.706;2024-02-26T13:35:58;6.50;99.90
24146;DHT22;12308;50.948;4.706;2024-02-26T13:38:24;6.50;99.90
24146;DHT22;12308;50.948;4.706;2024-02-26T13:40:50;6.60;99.90
24146;DHT22;12308;50.948;4.706;2024-02-26T13:43:17;6.50;99.90
24146;DHT22;12308;50.948;4.706;2024-02-26T13:45:43;6.50;99.90
24146;DHT22;12308;50.948;4.706;2024-02-26T13:48:10;6.50;99.90
24146;DHT22;12308;50.948;4.706;2024-02-26T13:50:41;6.50;99.90
24146;DHT22;12308;50.948;4.706;2024-02-26T13:53:08;6.40;99.90
24146;DHT22;12308;50.948;4.706;2024-02-26T13:55:34;6.40;99.90
24146;DHT22;12308;50.948;4.706;2024-02-26T13:58:01;6.40;99.90
24146;DHT22;12308;50.948;4.706;2024-02-26T14:00:29;6.40;99.90
24146;DHT22;12308;50.948;4.706;2024-02-26T14:02:57;6.50;99.90
24146;DHT22;12308;50.948;4.706;2024-02-26T14:05:23;6.50;99.90
24146;DHT22;12308;50.948;4.706;2024-02-26T14:07:49;6.50;99.90
24146;DHT22;12308;50.948;4.706;2024-02-26T14:10:15;6.50;99.90
24146;DHT22;12308;50.948;4.706;2024-02-26T14:12:41;6.50;99.90
24146;DHT22;12308;50.948;4.706;2024-02-26T14:15:07;6.50;99.90
24146;DHT22;12308;50.948;4.706;2024-02-26T14:17:33;6.50;99.90
24146;DHT22;12308;50.948;4.706;2024-02-26T14:19:59;6.60;99.90
24146;DHT22;12308;50.948;4.706;2024-02-26T14:22:25;6.60;99.90
24146;DHT22;12308;50.948;4.706;2024-02-26T14:24:56;6.60;99.90
24146;DHT22;12308;50.948;4.706;2024-02-26T14:27:23;6.60;99.90
24146;DHT22;12308;50.948;4.706;2024-02-26T14:29:49;6.60;99.90
24146;DHT22;12308;50.948;4.706;2024-02-26T14:32:15;6.60;99.90
24146;DHT22;12308;50.948;4.706;2024-02-26T14:34:41;6.70;99.90
24146;DHT22;12308;50.948;4.706;2024-02-26T14:37:07;6.60;99.90
24146;DHT22;12308;50.948;4.706;2024-02-26T14:39:33;6.60;99.90
24146;DHT22;12308;50.948;4.706;2024-02-26T14:41:59;6.60;99.90
24146;DHT22;12308;50.948;4.706;2024-02-26T14:44:25;6.60;99.90
24146;DHT22;12308;50.948;4.706;2024-02-26T14:46:51;6.60;99.90
24146;DHT22;12308;50.948;4.706;2024-02-26T14:49:17;6.50;99.90
24146;DHT22;12308;50.948;4.706;2024-02-26T14:51:43;6.50;99.90
24146;DHT22;12308;50.948;4.706;2024-02-26T14:54:12;6.50;99.90
24146;DHT22;12308;50.948;4.706;2024-02-26T14:56:38;6.50;99.90
24146;DHT22;12308;50.948;4.706;2024-02-26T14:59:04;6.60;99.90
24146;DHT22;12308;50.948;4.706;2024-02-26T15:01:30;6.60;99.90
24146;DHT22;12308;50.948;4.706;2024-02-26T15:03:55;6.50;99.90
24146;DHT22;12308;50.948;4.706;2024-02-26T15:06:22;6.50;99.90
24146;DHT22;12308;50.948;4.706;2024-02-26T15:08:48;6.50;99.90
24146;DHT22;12308;50.948;4.706;2024-02-26T15:11:14;6.50;99.90
24146;DHT22;12308;50.948;4.706;2024-02-26T15:13:41;6.50;99.90
24146;DHT22;12308;50.948;4.706;2024-02-26T15:16:06;6.50;99.90
24146;DHT22;12308;50.948;4.706;2024-02-26T15:18:32;6.50;99.90
24146;DHT22;12308;50.948;4.706;2024-02-26T15:20:58;6.50;99.90
24146;DHT22;12308;50.948;4.706;2024-02-26T15:23:24;6.50;99.90
24146;DHT22;12308;50.948;4.706;2024-02-26T15:25:50;6.40;99.90
24146;DHT22;12308;50.948;4.706;2024-02-26T15:28:15;6.50;99.90
24146;DHT22;12308;50.948;4.706;2024-02-26T15:30:41;6.60;99.90
24146;DHT22;12308;50.948;4.706;2024-02-26T15:33:07;6.60;99.90
24146;DHT22;12308;50.948;4.706;2024-02-26T15:35:34;6.60;99.90
24146;DHT22;12308;50.948;4.706;2024-02-26T15:38:00;6.60;99.90
24146;DHT22;12308;50.948;4.706;2024-02-26T15:40:26;6.60;99.90
24146;DHT22;12308;50.948;4.706;2024-02-26T15:42:52;6.60;99.90
24146;DHT22;12308;50.948;4.706;2024-02-26T15:45:18;6.60;99.90
24146;DHT22;12308;50.948;4.706;2024-02-26T15:47:44;6.60;99.90
24146;DHT22;12308;50.948;4.706;2024-02-26T15:50:10;6.60;99.90